Time;durP1;ratioP1;P1;durP2;ratioP2;P2;SDS_P1;SDS_P2;PMS_P1;PMS_P2;Temp;Humidity;BMP_temperature;BMP_pressure;BME280_temperature;BME280_humidity;BME280_pressure;Samples;Min_cycle;Max_cycle;Signal;HPM_P1;HPM_P2
2023/08/14 00:01:17;;;;;;;4.57;2.90;;;;;;;27.52;54.49;101188.16;5053684;28;20041;-57
2023/08/14 00:03:45;;;;;;;4.40;3.05;;;;;;;27.51;54.02;101190.03;5053630;28;20045;-58
2023/08/14 00:06:12;;;;;;;3.05;2.70;;;;;;;27.52;54.41;101194.44;5053165;28;20391;-58
2023/08/14 00:08:39;;;;;;;2.80;2.50;;;;;;;27.51;54.29;101192.75;5053758;28;20045;-59
2023/08/14 00:11:07;;;;;;;3.25;2.88;;;;;;;27.52;54.33;101194.44;5052144;28;20044;-59
2023/08/14 00:13:52;;;;;;;3.53;3.22;;;;;;;27.53;54.15;101189.84;5034814;28;20050;-59
2023/08/14 00:16:20;;;;;;;2.97;2.65;;;;;;;27.52;54.36;101199.88;5034490;28;20052;-59
2023/08/14 00:18:47;;;;;;;3.42;2.95;;;;;;;27.52;54.37;101194.44;5034561;28;20045;-59
2023/08/14 00:21:15;;;;;;;3.42;2.90;;;;;;;27.52;54.16;101194.44;5034497;28;20048;-59
2023/08/14 00:23:43;;;;;;;2.90;2.60;;;;;;;27.52;54.07;101197.16;5035103;28;20415;-59
2023/08/14 00:26:14;;;;;;;3.30;3.00;;;;;;;27.52;54.41;101194.44;5034526;28;20045;-59
2023/08/14 00:28:42;;;;;;;2.90;2.50;;;;;;;27.52;54.06;101191.72;5033871;28;20061;-57
2023/08/14 00:31:09;;;;;;;3.05;2.65;;;;;;;27.53;54.01;101193.41;5033381;28;20045;-57
2023/08/14 00:33:36;;;;;;;3.15;2.63;;;;;;;27.53;53.99;101195.28;5034561;28;20060;-57
2023/08/14 00:36:05;;;;;;;3.10;2.75;;;;;;;27.51;54.07;101187.31;5032968;28;20053;-57
2023/08/14 00:38:33;;;;;;;3.35;2.90;;;;;;;27.52;54.27;101194.44;5033392;28;20503;-59
2023/08/14 00:41:03;;;;;;;4.35;2.72;;;;;;;27.53;54.09;101192.56;5033103;28;20492;-59
2023/08/14 00:43:30;;;;;;;3.25;2.95;;;;;;;27.52;54.22;101186.28;5033675;28;20056;-59
2023/08/14 00:45:58;;;;;;;3.33;2.95;;;;;;;27.52;54.34;101191.72;5033068;28;20495;-59
2023/08/14 00:48:26;;;;;;;5.15;3.00;;;;;;;27.52;54.08;101185.44;5034261;28;20057;-59
2023/08/14 00:50:54;;;;;;;3.05;2.75;;;;;;;27.53;54.02;101192.56;5033025;28;20045;-59
2023/08/14 00:53:25;;;;;;;3.53;3.13;;;;;;;27.53;54.45;101192.56;5034509;28;20049;-59
2023/08/14 00:55:54;;;;;;;2.97;2.58;;;;;;;27.52;54.31;101194.44;5034509;28;20045;-59
2023/08/14 00:58:23;;;;;;;3.85;2.67;;;;;;;27.52;54.17;101196.31;5034782;28;20041;-59
2023/08/14 01:00:51;;;;;;;2.80;2.50;;;;;;;27.52;54.35;101204.47;5033557;28;20049;-59
2023/08/14 01:03:20;;;;;;;3.15;2.83;;;;;;;27.53;54.45;101201.56;5049570;28;20053;-59
2023/08/14 01:05:47;;;;;;;3.58;2.95;;;;;;;27.53;54.38;101198.84;5032554;28;20064;-59
2023/08/14 01:08:15;;;;;;;3.25;2.63;;;;;;;27.53;54.08;101192.56;5033901;28;20058;-59
2023/08/14 01:11:02;;;;;;;3.17;2.67;;;;;;;27.53;54.33;101185.25;5034359;28;20045;-59
2023/08/14 01:13:51;;;;;;;3.83;3.42;;;;;;;27.52;54.22;101182.72;5034543;28;20053;-59
2023/08/14 01:16:23;;;;;;;3.10;2.78;;;;;;;27.52;54.09;101183.56;5033947;28;20046;-59
2023/08/14 01:18:53;;;;;;;3.20;2.83;;;;;;;27.52;54.08;101186.28;5034348;28;20049;-59
2023/08/14 01:21:32;;;;;;;2.70;2.30;;;;;;;27.53;54.36;101190.69;5032819;28;20384;-59
2023/08/14 01:24:28;;;;;;;3.30;2.80;;;;;;;27.52;54.08;101183.56;5033784;28;20049;-59
2023/08/14 01:26:56;;;;;;;2.90;2.60;;;;;;;27.52;54.29;101183.56;5040256;28;20045;-57
2023/08/14 01:29:23;;;;;;;2.92;2.63;;;;;;;27.53;54.30;101190.69;5052533;28;20052;-59
2023/08/14 01:31:51;;;;;;;3.30;2.50;;;;;;;27.52;54.18;101189.00;5051472;28;20045;-59
2023/08/14 01:34:18;;;;;;;3.65;2.83;;;;;;;27.53;54.10;101192.56;5051627;28;20411;-59
2023/08/14 01:37:01;;;;;;;3.28;2.63;;;;;;;27.53;54.30;101193.41;5050909;28;20068;-59
2023/08/14 01:39:39;;;;;;;3.40;2.90;;;;;;;27.53;53.92;101190.69;5052716;28;20484;-57
2023/08/14 01:42:25;;;;;;;3.33;2.78;;;;;;;27.52;54.29;101185.44;5052200;28;20399;-57
2023/08/14 01:45:00;;;;;;;3.65;3.17;;;;;;;27.52;54.28;101183.56;5034152;28;20049;-57
2023/08/14 01:47:30;;;;;;;3.45;2.97;;;;;;;27.52;54.27;101189.00;5033626;28;20056;-57
2023/08/14 01:50:01;;;;;;;3.30;2.92;;;;;;;27.52;54.10;101189.00;5032554;28;20061;-57
2023/08/14 01:52:30;;;;;;;2.88;2.58;;;;;;;27.52;54.35;101183.56;5034138;28;20510;-57
2023/08/14 01:55:00;;;;;;;3.33;2.60;;;;;;;27.52;53.95;101182.72;5033663;28;20049;-57
2023/08/14 01:57:29;;;;;;;3.00;2.58;;;;;;;27.53;54.01;101189.84;5034346;28;20041;-57
2023/08/14 01:59:58;;;;;;;2.95;2.53;;;;;;;27.51;54.39;101200.06;5036694;28;20053;-57
2023/08/14 02:02:25;;;;;;;3.17;2.60;;;;;;;27.51;54.38;101206.38;5036527;28;20049;-57
2023/08/14 02:04:52;;;;;;;3.63;2.90;;;;;;;27.51;53.95;101195.47;5036063;28;20065;-57
2023/08/14 02:07:21;;;;;;;3.50;2.70;;;;;;;27.52;54.02;101205.34;5036080;28;20045;-57
2023/08/14 02:09:49;;;;;;;2.88;2.47;;;;;;;27.52;54.33;101202.59;5036615;28;20053;-57
2023/08/14 02:12:16;;;;;;;3.05;2.75;;;;;;;27.52;54.22;101202.59;5035980;28;20072;-57
2023/08/14 02:14:44;;;;;;;3.17;2.65;;;;;;;27.52;54.33;101197.16;5036345;28;20076;-57
2023/08/14 02:17:11;;;;;;;3.13;2.83;;;;;;;27.52;54.30;101194.44;5037150;28;20057;-58
2023/08/14 02:19:41;;;;;;;3.47;2.70;;;;;;;27.53;54.01;101198.00;5036427;28;20510;-59
2023/08/14 02:22:09;;;;;;;3.30;2.60;;;;;;;27.53;54.34;101200.72;5036702;28;20050;-59
2023/08/14 02:24:36;;;;;;;3.45;2.85;;;;;;;27.52;54.03;101183.56;5037046;28;20049;-59
2023/08/14 02:27:03;;;;;;;3.05;2.63;;;;;;;27.53;54.17;101181.69;5036837;28;20053;-58
2023/08/14 02:29:33;;;;;;;3.40;3.00;;;;;;;27.52;54.03;101175.41;5037067;28;20064;-57
2023/08/14 02:32:00;;;;;;;2.60;2.25;;;;;;;27.52;54.02;101180.84;5036644;28;20046;-57
2023/08/14 02:34:50;;;;;;;3.15;2.47;;;;;;;27.53;54.24;101189.84;5035398;28;20053;-57
2023/08/14 02:37:18;;;;;;;3.15;2.60;;;;;;;27.54;53.92;101183.38;5035760;28;20045;-58
2023/08/14 02:39:47;;;;;;;2.97;2.58;;;;;;;27.52;54.20;101180.84;5036514;28;20048;-59
2023/08/14 02:42:16;;;;;;;3.42;3.05;;;;;;;27.52;54.16;101183.56;5035544;28;20053;-59
2023/08/14 02:44:45;;;;;;;3.63;2.85;;;;;;;27.53;54.15;101179.81;5037275;28;20049;-59
2023/08/14 02:47:13;;;;;;;2.67;2.40;;;;;;;27.53;53.93;101178.97;5035578;28;20057;-58
2023/08/14 02:49:40;;;;;;;3.00;2.70;;;;;;;27.52;53.87;101175.41;5036894;28;20041;-59
2023/08/14 02:52:08;;;;;;;3.10;2.42;;;;;;;27.53;53.99;101177.09;5035347;28;20045;-59
2023/08/14 02:54:35;;;;;;;3.15;2.67;;;;;;;27.52;54.30;101177.28;5036274;28;20058;-59
2023/08/14 02:57:02;;;;;;;3.10;2.47;;;;;;;27.51;54.21;101179.16;5036613;28;20403;-58
2023/08/14 02:59:33;;;;;;;3.30;2.83;;;;;;;27.52;53.95;101178.13;5035962;28;20073;-59
2023/08/14 03:02:00;;;;;;;4.18;2.88;;;;;;;27.52;53.97;101178.13;5035226;28;20054;-57
2023/08/14 03:04:29;;;;;;;3.60;3.00;;;;;;;27.52;53.97;101188.16;5036048;28;20060;-57
2023/08/14 03:06:57;;;;;;;3.20;2.70;;;;;;;27.52;53.94;101186.28;5035037;28;20385;-57
2023/08/14 03:09:25;;;;;;;3.03;2.47;;;;;;;27.52;53.99;101186.28;5034131;28;20057;-57
2023/08/14 03:11:52;;;;;;;3.00;2.35;;;;;;;27.51;54.18;101179.16;5035903;28;20053;-57
2023/08/14 03:14:19;;;;;;;3.20;2.70;;;;;;;27.53;54.19;101181.69;5034658;28;20053;-57
2023/08/14 03:16:47;;;;;;;3.42;2.83;;;;;;;27.52;54.18;101172.69;5035263;28;20056;-57
2023/08/14 03:19:14;;;;;;;3.22;2.78;;;;;;;27.52;53.82;101175.41;5035377;28;20050;-57
2023/08/14 03:21:42;;;;;;;3.17;2.75;;;;;;;27.53;54.17;101179.81;5035598;28;20510;-57
2023/08/14 03:24:09;;;;;;;3.92;3.00;;;;;;;27.52;53.93;101183.56;5034780;28;20053;-57
2023/08/14 03:26:36;;;;;;;3.53;3.03;;;;;;;27.52;53.98;101175.41;5034776;28;20133;-57
2023/08/14 03:29:05;;;;;;;3.20;2.75;;;;;;;27.52;53.83;101178.13;5034728;28;20419;-59
2023/08/14 03:31:33;;;;;;;2.80;2.40;;;;;;;27.52;54.20;101169.13;5035507;28;20491;-59
2023/08/14 03:34:02;;;;;;;2.75;2.33;;;;;;;27.52;54.13;101169.97;5034014;28;20061;-59
2023/08/14 03:36:31;;;;;;;3.67;2.85;;;;;;;27.52;54.22;101172.69;5034657;28;20060;-59
2023/08/14 03:39:00;;;;;;;3.67;2.95;;;;;;;27.51;53.89;101171.00;5034367;28;20057;-59
2023/08/14 03:41:28;;;;;;;3.20;2.70;;;;;;;27.51;54.16;101165.56;5034227;28;20053;-59
2023/08/14 03:43:58;;;;;;;3.30;2.80;;;;;;;27.51;54.03;101173.72;5034305;28;20053;-59
2023/08/14 03:46:25;;;;;;;3.40;3.05;;;;;;;27.51;54.22;101176.44;5035847;28;20404;-59
2023/08/14 03:48:53;;;;;;;3.30;2.80;;;;;;;27.51;54.14;101181.88;5035920;28;20415;-59
2023/08/14 03:51:20;;;;;;;4.20;3.10;;;;;;;27.52;53.88;101182.72;5034109;28;20097;-59
2023/08/14 03:53:47;;;;;;;3.20;2.90;;;;;;;27.52;53.82;101186.28;5035143;28;20053;-59
2023/08/14 03:56:15;;;;;;;2.85;2.53;;;;;;;27.52;54.07;101194.44;5035614;28;20407;-59
2023/08/14 03:58:43;;;;;;;2.90;2.60;;;;;;;27.53;53.94;101195.28;5041550;28;20051;-57
2023/08/14 04:01:10;;;;;;;2.90;2.50;;;;;;;27.52;54.22;101188.16;5053867;28;20041;-57
2023/08/14 04:03:37;;;;;;;3.63;2.67;;;;;;;27.51;53.81;101187.31;5053652;28;20045;-57
2023/08/14 04:06:05;;;;;;;3.70;2.67;;;;;;;27.51;53.95;101192.75;5052758;28;20041;-57
2023/08/14 04:08:32;;;;;;;3.00;2.47;;;;;;;27.52;54.19;101188.16;5052753;28;20379;-59
2023/08/14 04:10:59;;;;;;;3.08;2.55;;;;;;;27.52;53.81;101193.59;5053695;28;20053;-59
2023/08/14 04:13:28;;;;;;;3.22;2.60;;;;;;;27.51;53.77;101190.03;5053655;28;20417;-59
2023/08/14 04:16:03;;;;;;;3.10;2.53;;;;;;;27.51;54.03;101187.31;5036487;28;20057;-59
2023/08/14 04:18:31;;;;;;;2.92;2.47;;;;;;;27.52;54.24;101201.75;5052520;28;20053;-57
2023/08/14 04:20:58;;;;;;;2.75;2.25;;;;;;;27.51;53.88;101202.81;5051755;28;20049;-57
2023/08/14 04:23:26;;;;;;;3.42;2.70;;;;;;;27.51;53.99;101206.38;5052382;28;20049;-57
2023/08/14 04:25:53;;;;;;;2.95;2.55;;;;;;;27.52;54.06;101208.03;5051799;28;20050;-57
2023/08/14 04:28:22;;;;;;;3.13;2.83;;;;;;;27.51;54.08;101206.38;5052326;28;20060;-57
2023/08/14 04:30:49;;;;;;;3.00;2.70;;;;;;;27.52;54.03;101194.44;5053081;28;20037;-57
2023/08/14 04:33:17;;;;;;;2.97;2.50;;;;;;;27.52;54.11;101190.88;5052499;28;20044;-57
2023/08/14 04:35:46;;;;;;;3.22;2.65;;;;;;;27.52;54.19;101193.59;5051570;28;20415;-57
2023/08/14 04:38:14;;;;;;;3.47;2.90;;;;;;;27.50;54.05;101188.31;5051550;28;20517;-57
2023/08/14 04:40:47;;;;;;;3.25;2.75;;;;;;;27.50;53.75;101193.75;5052384;28;20060;-57
2023/08/14 04:43:15;;;;;;;3.33;3.00;;;;;;;27.51;53.83;101195.47;5050778;28;20045;-57
2023/08/14 04:45:42;;;;;;;2.90;2.40;;;;;;;27.51;53.90;101197.34;5051350;28;20056;-57
2023/08/14 04:48:09;;;;;;;3.13;2.70;;;;;;;27.50;54.03;101191.03;5053281;28;20049;-58
2023/08/14 04:50:37;;;;;;;3.15;2.65;;;;;;;27.51;53.80;101208.25;5051590;28;20060;-59
2023/08/14 04:53:04;;;;;;;3.22;2.63;;;;;;;27.51;53.92;101213.69;5052360;28;20037;-59
2023/08/14 04:55:34;;;;;;;3.55;2.65;;;;;;;27.51;54.00;101219.97;5051560;28;20056;-59
2023/08/14 04:58:02;;;;;;;3.80;2.80;;;;;;;27.52;53.94;101220.81;5052831;28;20049;-59
2023/08/14 05:00:29;;;;;;;3.20;2.72;;;;;;;27.51;53.75;101219.13;5051676;28;20045;-59
2023/08/14 05:02:59;;;;;;;3.30;2.55;;;;;;;27.51;54.11;101213.69;5050431;28;20075;-59
2023/08/14 05:05:27;;;;;;;2.95;2.65;;;;;;;27.50;53.79;101218.25;5053325;28;20052;-59
2023/08/14 05:07:54;;;;;;;3.75;2.92;;;;;;;27.51;54.19;101224.56;5051949;28;20080;-57
2023/08/14 05:10:21;;;;;;;3.70;2.90;;;;;;;27.51;53.94;101227.28;5052915;28;20070;-57
2023/08/14 05:12:49;;;;;;;3.10;2.80;;;;;;;27.51;53.80;101225.41;5035509;28;20041;-57
2023/08/14 05:15:16;;;;;;;3.35;2.70;;;;;;;27.51;53.83;101230.84;5033781;28;20045;-57
2023/08/14 05:17:44;;;;;;;3.45;2.70;;;;;;;27.51;54.09;101236.28;5033303;28;20065;-57
2023/08/14 05:20:12;;;;;;;2.95;2.40;;;;;;;27.51;53.77;101228.13;5032768;28;20128;-57
2023/08/14 05:22:39;;;;;;;3.38;2.55;;;;;;;27.52;53.80;101237.13;5034043;28;20042;-57
2023/08/14 05:25:08;;;;;;;4.00;3.22;;;;;;;27.50;53.83;101237.28;5034074;28;20049;-57
2023/08/14 05:27:38;;;;;;;2.90;2.55;;;;;;;27.51;54.18;101241.72;5033631;28;20058;-57
2023/08/14 05:30:06;;;;;;;3.40;2.60;;;;;;;27.51;54.12;101239.00;5033715;28;20057;-57
2023/08/14 05:32:34;;;;;;;4.05;2.35;;;;;;;27.51;53.84;101235.44;5034260;28;20530;-57
2023/08/14 05:35:01;;;;;;;3.67;2.85;;;;;;;27.50;54.10;101240.00;5037964;28;20057;-57
2023/08/14 05:37:29;;;;;;;3.17;2.67;;;;;;;27.51;53.80;101236.28;5037804;28;20045;-57
2023/08/14 05:39:56;;;;;;;3.30;2.97;;;;;;;27.50;53.91;101242.72;5037626;28;20411;-57
2023/08/14 05:42:23;;;;;;;3.05;2.55;;;;;;;27.50;53.85;101236.44;5038010;28;20049;-57
2023/08/14 05:44:51;;;;;;;3.75;3.30;;;;;;;27.51;54.17;101227.28;5038023;28;20045;-59
2023/08/14 05:47:18;;;;;;;3.50;2.60;;;;;;;27.51;53.76;101239.00;5037536;28;20057;-57
2023/08/14 05:49:45;;;;;;;2.58;2.28;;;;;;;27.51;53.75;101239.00;5037532;28;20048;-57
2023/08/14 05:52:13;;;;;;;3.85;2.72;;;;;;;27.49;53.84;101241.03;5036963;28;20045;-57
2023/08/14 05:54:40;;;;;;;3.75;3.05;;;;;;;27.50;53.82;101240.00;5036255;28;20515;-57
2023/08/14 05:57:08;;;;;;;2.97;2.60;;;;;;;27.50;54.11;101242.72;5037076;28;20064;-59
2023/08/14 05:59:35;;;;;;;3.08;2.60;;;;;;;27.50;53.92;101240.00;5037120;28;20393;-59
2023/08/14 06:02:03;;;;;;;2.80;2.50;;;;;;;27.50;54.14;101242.72;5037683;28;20049;-59
2023/08/14 06:04:30;;;;;;;3.72;2.90;;;;;;;27.50;53.93;101244.59;5037095;28;20037;-59
2023/08/14 06:06:58;;;;;;;4.65;3.10;;;;;;;27.50;53.77;101245.44;5037329;28;20049;-57
2023/08/14 06:09:25;;;;;;;3.47;2.85;;;;;;;27.49;54.04;101246.47;5037102;28;20056;-58
2023/08/14 06:11:53;;;;;;;2.47;2.10;;;;;;;27.51;54.11;101249.03;5037707;28;20060;-57
2023/08/14 06:14:20;;;;;;;3.33;2.90;;;;;;;27.51;53.75;101246.31;5036978;28;20068;-57
2023/08/14 06:16:48;;;;;;;4.47;2.67;;;;;;;27.51;53.88;101246.31;5036946;28;20053;-57
2023/08/14 06:19:15;;;;;;;3.30;2.70;;;;;;;27.51;54.18;101246.31;5037052;28;20041;-57
2023/08/14 06:21:42;;;;;;;4.40;2.80;;;;;;;27.51;54.13;101240.88;5037549;28;20041;-57
2023/08/14 06:24:10;;;;;;;3.90;2.90;;;;;;;27.51;54.05;101244.44;5036805;28;20049;-57
2023/08/14 06:26:38;;;;;;;3.10;2.80;;;;;;;27.50;53.79;101242.72;5043088;28;20048;-57
2023/08/14 06:29:05;;;;;;;3.65;2.63;;;;;;;27.50;53.76;101240.00;5055488;28;20487;-59
2023/08/14 06:31:32;;;;;;;3.28;2.90;;;;;;;27.51;53.80;101249.03;5054922;28;20049;-59
2023/08/14 06:34:00;;;;;;;3.55;2.80;;;;;;;27.50;54.12;101237.28;5055288;28;20045;-59
2023/08/14 06:36:28;;;;;;;3.53;2.60;;;;;;;27.51;54.00;101246.31;5054885;28;20064;-59
2023/08/14 06:38:56;;;;;;;3.85;3.08;;;;;;;27.51;54.26;101244.44;5055656;28;20049;-59
2023/08/14 06:41:23;;;;;;;3.58;2.88;;;;;;;27.50;54.25;101245.44;5055029;28;20514;-59
2023/08/14 06:43:51;;;;;;;3.17;2.72;;;;;;;27.50;53.88;101244.59;5055086;28;20115;-59
2023/08/14 06:46:18;;;;;;;3.53;2.83;;;;;;;27.50;54.04;101253.59;5055496;28;20045;-59
2023/08/14 06:48:46;;;;;;;4.30;3.20;;;;;;;27.51;54.05;101255.31;5055236;28;20045;-59
2023/08/14 06:51:13;;;;;;;3.22;2.80;;;;;;;27.51;53.65;101254.47;5054528;28;20049;-59
2023/08/14 06:53:41;;;;;;;3.10;2.58;;;;;;;27.51;54.13;101260.75;5055305;28;20048;-59
2023/08/14 06:56:08;;;;;;;3.92;2.75;;;;;;;27.50;54.28;101264.47;5055330;28;20053;-59
2023/08/14 06:58:36;;;;;;;3.53;3.13;;;;;;;27.52;54.26;101272.47;5054944;28;20053;-57
2023/08/14 07:01:03;;;;;;;4.32;3.20;;;;;;;27.51;54.13;101274.34;5054206;28;20048;-57
2023/08/14 07:03:30;;;;;;;3.75;2.75;;;;;;;27.52;53.83;101264.31;5053249;28;20049;-57
2023/08/14 07:05:58;;;;;;;3.50;2.88;;;;;;;27.51;53.93;101266.19;5053703;28;20056;-57
2023/08/14 07:08:25;;;;;;;3.30;2.80;;;;;;;27.51;54.16;101277.06;5055127;28;20041;-59
2023/08/14 07:10:53;;;;;;;3.22;2.65;;;;;;;27.51;53.95;101271.63;5054770;28;20056;-59
2023/08/14 07:13:21;;;;;;;2.97;2.45;;;;;;;27.52;54.17;101275.19;5054726;28;20044;-59
2023/08/14 07:15:49;;;;;;;3.10;2.55;;;;;;;27.52;53.91;101267.88;5054717;28;20055;-59
2023/08/14 07:18:18;;;;;;;3.47;2.78;;;;;;;27.52;54.16;101262.44;5054831;28;20045;-59
2023/08/14 07:20:46;;;;;;;3.90;3.20;;;;;;;27.52;53.89;101261.59;5053877;28;20049;-59
2023/08/14 07:23:15;;;;;;;2.88;2.50;;;;;;;27.52;54.16;101273.31;5055043;28;20048;-59
2023/08/14 07:25:43;;;;;;;2.75;2.42;;;;;;;27.51;54.27;101271.63;5054709;28;20431;-59
2023/08/14 07:28:11;;;;;;;2.90;2.60;;;;;;;27.52;54.25;101264.31;5054445;28;20053;-57
2023/08/14 07:30:39;;;;;;;3.47;2.70;;;;;;;27.52;53.69;101283.34;5054426;28;20056;-57
2023/08/14 07:33:10;;;;;;;3.55;2.67;;;;;;;27.51;53.81;101273.50;5054328;28;20048;-56
2023/08/14 07:35:38;;;;;;;3.60;3.20;;;;;;;27.52;54.08;101276.03;5054484;28;20045;-57
2023/08/14 07:38:05;;;;;;;3.05;2.40;;;;;;;27.53;54.13;101283.16;5054089;28;20107;-59
2023/08/14 07:40:33;;;;;;;4.07;3.10;;;;;;;27.53;54.20;101287.75;5035546;28;20049;-59
2023/08/14 07:43:00;;;;;;;3.63;2.67;;;;;;;27.53;54.15;101285.88;5052108;28;20056;-59
2023/08/14 07:45:27;;;;;;;2.80;2.40;;;;;;;27.52;54.24;101284.19;5054421;28;20411;-59
2023/08/14 07:47:55;;;;;;;3.25;2.88;;;;;;;27.52;53.93;101284.19;5053789;28;20487;-56
2023/08/14 07:50:22;;;;;;;3.65;2.88;;;;;;;27.52;53.99;101276.03;5054692;28;20045;-57
2023/08/14 07:52:50;;;;;;;3.22;2.92;;;;;;;27.53;53.97;101282.31;5046809;28;20403;-57
2023/08/14 07:55:17;;;;;;;3.90;3.03;;;;;;;27.53;54.07;101280.44;5045951;28;20050;-57
2023/08/14 07:57:45;;;;;;;3.22;2.90;;;;;;;27.53;53.90;101288.59;5054009;28;20048;-59
2023/08/14 08:00:13;;;;;;;3.45;2.67;;;;;;;27.53;53.93;101283.16;5034731;28;20041;-59
2023/08/14 08:02:41;;;;;;;3.83;2.47;;;;;;;27.54;53.92;101284.00;5033248;28;20049;-59
2023/08/14 08:05:09;;;;;;;3.17;2.85;;;;;;;27.54;54.38;101278.56;5035096;28;20049;-59
2023/08/14 08:07:36;;;;;;;3.08;2.78;;;;;;;27.54;53.84;101286.72;5034485;28;20377;-59
2023/08/14 08:10:04;;;;;;;2.90;2.38;;;;;;;27.54;53.89;101282.13;5034387;28;20048;-59
2023/08/14 08:12:31;;;;;;;4.93;2.65;;;;;;;27.54;54.31;101287.56;5034212;28;20049;-59
2023/08/14 08:14:59;;;;;;;3.15;2.75;;;;;;;27.55;53.87;101285.72;5034342;28;20060;-58
2023/08/14 08:17:26;;;;;;;2.97;2.67;;;;;;;27.56;54.23;101281.97;5034101;28;20480;-57
2023/08/14 08:19:53;;;;;;;3.90;3.10;;;;;;;27.56;53.80;101281.97;5034407;28;20061;-57
2023/08/14 08:22:21;;;;;;;3.10;2.80;;;;;;;27.56;54.25;101287.41;5034050;28;20045;-57
2023/08/14 08:24:48;;;;;;;3.33;2.90;;;;;;;27.55;54.23;101292.00;5034025;28;20056;-57
2023/08/14 08:27:16;;;;;;;3.17;2.60;;;;;;;27.54;53.99;101287.56;5034215;28;20041;-58
2023/08/14 08:29:43;;;;;;;3.33;3.03;;;;;;;27.56;53.81;101293.69;5038005;28;20381;-59
2023/08/14 08:32:10;;;;;;;3.75;2.70;;;;;;;27.56;54.06;101292.84;5053556;28;20045;-59
2023/08/14 08:34:38;;;;;;;3.33;3.03;;;;;;;27.56;53.88;101301.84;5052998;28;20491;-59
2023/08/14 08:37:06;;;;;;;3.25;2.78;;;;;;;27.56;53.90;101299.13;5053038;28;20049;-57
2023/08/14 08:39:34;;;;;;;3.10;2.80;;;;;;;27.58;54.10;101293.50;5033750;28;20045;-57
2023/08/14 08:42:02;;;;;;;3.30;3.00;;;;;;;27.56;53.98;101295.56;5033740;28;20049;-57
2023/08/14 08:44:32;;;;;;;3.00;2.70;;;;;;;27.57;53.83;101302.69;5032535;28;20045;-57
2023/08/14 08:47:10;;;;;;;3.60;2.67;;;;;;;27.57;53.76;101298.09;5033646;28;20053;-58
2023/08/14 08:49:39;;;;;;;3.80;3.00;;;;;;;27.57;53.88;101300.81;5033266;28;20061;-59
2023/08/14 08:52:10;;;;;;;;;;;;;;;27.54;53.98;101301.16;5035032;28;20046;-59
2023/08/14 08:54:38;;;;;;;3.20;2.50;;;;;;;27.58;53.84;101301.66;5033635;28;19921;-59
2023/08/14 08:57:06;;;;;;;3.53;2.60;;;;;;;27.57;54.05;101298.09;5033371;28;20045;-58
2023/08/14 08:59:34;;;;;;;2.83;2.53;;;;;;;27.57;53.71;101295.38;5032281;28;20041;-57
2023/08/14 09:02:01;;;;;;;4.10;3.28;;;;;;;27.58;53.78;101301.66;5033416;28;20048;-57
2023/08/14 09:04:28;;;;;;;4.75;2.78;;;;;;;27.57;53.65;101300.81;5033389;28;20404;-56
2023/08/14 09:06:56;;;;;;;3.22;2.83;;;;;;;27.57;53.80;101298.09;5032788;28;20052;-58
2023/08/14 09:09:24;;;;;;;3.33;2.70;;;;;;;27.59;54.01;101297.94;5032931;28;20049;-57
2023/08/14 09:11:51;;;;;;;3.30;2.92;;;;;;;27.58;54.15;101297.06;5033221;28;20056;-57
2023/08/14 09:14:22;;;;;;;2.97;2.58;;;;;;;27.59;54.03;101292.50;5033379;28;20101;-57
2023/08/14 09:16:53;;;;;;;3.03;2.60;;;;;;;27.59;53.74;101301.50;5033906;28;20053;-57
2023/08/14 09:19:20;;;;;;;2.95;2.53;;;;;;;27.59;54.05;101293.34;5033823;28;20064;-57
2023/08/14 09:21:48;;;;;;;4.07;2.72;;;;;;;27.59;53.59;101287.91;5034212;28;20084;-57
2023/08/14 09:24:16;;;;;;;3.17;2.88;;;;;;;27.59;54.06;101293.34;5033197;28;20046;-57
2023/08/14 09:26:44;;;;;;;3.47;3.03;;;;;;;27.58;53.79;101288.06;5033116;28;20415;-57
2023/08/14 09:29:13;;;;;;;3.30;2.88;;;;;;;27.59;53.79;101290.63;5033254;28;20396;-59
2023/08/14 09:31:45;;;;;;;3.00;2.67;;;;;;;27.59;53.95;101285.19;5033138;28;20060;-59
2023/08/14 09:34:17;;;;;;;3.53;3.00;;;;;;;27.60;54.05;101288.75;5048909;28;20052;-59
2023/08/14 09:36:44;;;;;;;3.50;2.78;;;;;;;27.59;53.78;101287.91;5052693;28;20052;-59
2023/08/14 09:39:13;;;;;;;3.35;2.80;;;;;;;27.59;54.04;101290.63;5052925;28;20061;-59
2023/08/14 09:41:46;;;;;;;3.10;2.75;;;;;;;27.60;53.79;101284.16;5052546;28;20424;-59
2023/08/14 09:44:13;;;;;;;3.28;2.97;;;;;;;27.61;53.75;101291.28;5051721;28;20041;-59
2023/08/14 09:46:41;;;;;;;3.50;2.92;;;;;;;27.60;53.63;101289.59;5052514;28;20055;-58
2023/08/14 09:49:09;;;;;;;3.13;2.60;;;;;;;27.60;53.74;101281.44;5052376;28;20049;-59
2023/08/14 09:51:39;;;;;;;2.80;2.50;;;;;;;27.61;53.78;101290.44;5052343;28;20402;-58
2023/08/14 09:54:09;;;;;;;2.63;2.35;;;;;;;27.60;53.54;101278.72;5051648;28;20054;-59
2023/08/14 09:56:37;;;;;;;2.63;2.30;;;;;;;27.60;53.77;101286.88;5052568;28;20056;-59
2023/08/14 09:59:06;;;;;;;3.10;2.80;;;;;;;27.62;53.73;101275.81;5052526;28;20056;-58
2023/08/14 10:01:34;;;;;;;3.38;2.75;;;;;;;27.61;53.54;101274.97;5052178;28;20045;-58
2023/08/14 10:04:02;;;;;;;3.20;2.85;;;;;;;27.61;53.56;101274.97;5036239;28;20494;-58
2023/08/14 10:06:31;;;;;;;3.25;2.50;;;;;;;27.62;53.73;101278.53;5051046;28;20041;-59
2023/08/14 10:09:01;;;;;;;3.20;2.90;;;;;;;27.61;54.02;101271.41;5052341;28;20060;-58
2023/08/14 10:11:30;;;;;;;3.25;2.80;;;;;;;27.63;53.80;101271.22;5045821;28;20042;-59
2023/08/14 10:14:02;;;;;;;3.15;2.85;;;;;;;27.61;53.47;101260.53;5033699;28;20072;-59
2023/08/14 10:16:40;;;;;;;2.60;2.40;;;;;;;27.63;53.57;101268.50;5032406;28;20041;-58
2023/08/14 10:19:12;;;;;;;3.00;2.70;;;;;;;27.63;53.83;101266.66;5034510;28;20053;-58
2023/08/14 10:21:42;;;;;;;;;;;;;;;27.60;53.72;101264.28;5037774;28;20049;-59
2023/08/14 10:24:11;;;;;;;3.13;2.80;;;;;;;27.62;53.85;101259.50;5036919;28;19921;-59
2023/08/14 10:26:39;;;;;;;3.28;2.42;;;;;;;27.62;53.66;101264.94;5036721;28;20415;-59
2023/08/14 10:29:07;;;;;;;3.47;2.78;;;;;;;27.62;53.62;101259.50;5036709;28;20060;-58
2023/08/14 10:31:35;;;;;;;3.35;2.63;;;;;;;27.62;53.60;101254.06;5055764;28;20490;-59
2023/08/14 10:34:03;;;;;;;3.63;2.88;;;;;;;27.61;53.79;101247.78;5055628;28;20415;-58
2023/08/14 10:36:30;;;;;;;3.45;2.90;;;;;;;27.62;53.74;101245.91;5055373;28;20045;-58
2023/08/14 10:39:10;;;;;;;3.53;2.80;;;;;;;27.63;53.70;101244.03;5040465;28;20052;-56
2023/08/14 10:41:45;;;;;;;3.00;2.70;;;;;;;27.63;53.61;101238.59;5042234;28;20487;-57
2023/08/14 10:44:12;;;;;;;3.33;2.80;;;;;;;27.62;53.51;101232.28;5055274;28;20052;-56
2023/08/14 10:46:41;;;;;;;2.80;2.50;;;;;;;27.63;53.50;101238.59;5055217;28;20048;-57
2023/08/14 10:49:13;;;;;;;2.90;2.30;;;;;;;27.63;53.69;101238.59;5053597;28;20054;-56
2023/08/14 10:51:42;;;;;;;3.15;2.30;;;;;;;27.63;53.61;101231.28;5055672;28;20064;-57
2023/08/14 10:54:14;;;;;;;2.65;2.40;;;;;;;27.64;53.61;101234.88;5055320;28;20045;-57
2023/08/14 10:56:57;;;;;;;3.03;2.58;;;;;;;27.64;53.73;101234.88;5054890;28;20048;-57
2023/08/14 10:59:28;;;;;;;3.33;2.90;;;;;;;27.63;53.46;101228.56;5036833;28;20041;-58
2023/08/14 11:02:12;;;;;;;3.10;2.78;;;;;;;27.63;53.76;101224.97;5036120;28;20049;-59
2023/08/14 11:05:00;;;;;;;3.20;2.55;;;;;;;27.63;53.66;101222.25;5037003;28;20050;-59
2023/08/14 11:07:29;;;;;;;3.03;2.72;;;;;;;27.64;53.59;101221.25;5036209;28;20381;-58
2023/08/14 11:10:00;;;;;;;2.78;2.47;;;;;;;27.64;53.68;101226.69;5035977;28;20053;-58
2023/08/14 11:12:32;;;;;;;3.47;2.90;;;;;;;27.63;53.43;101220.41;5036515;28;20072;-58
2023/08/14 11:15:00;;;;;;;3.05;2.75;;;;;;;27.64;53.62;101218.53;5035912;28;20068;-58
2023/08/14 11:17:27;;;;;;;2.35;1.95;;;;;;;27.65;53.63;101217.50;5035899;28;20523;-58
2023/08/14 11:19:55;;;;;;;3.53;2.35;;;;;;;27.64;53.77;101208.50;5035918;28;20412;-59
2023/08/14 11:22:23;;;;;;;2.92;2.60;;;;;;;27.64;53.52;101213.94;5036187;28;20062;-58
2023/08/14 11:24:50;;;;;;;3.33;2.72;;;;;;;27.64;53.31;101213.94;5035807;28;20045;-59
2023/08/14 11:27:18;;;;;;;3.00;2.63;;;;;;;27.65;53.51;101217.50;5047677;28;20071;-56
2023/08/14 11:29:48;;;;;;;2.90;2.25;;;;;;;27.65;53.52;101212.06;5055192;28;20048;-57
2023/08/14 11:32:20;;;;;;;3.17;2.88;;;;;;;27.64;53.83;101210.38;5053331;28;20060;-57
2023/08/14 11:34:50;;;;;;;3.15;2.65;;;;;;;27.64;53.50;101204.94;5054478;28;20057;-57